createdAt,value
2019-02-21T00:04:13.518Z,9.60
2019-02-21T00:06:24.315Z,9.63
2019-02-21T00:08:35.168Z,10.03
2019-02-21T00:10:46.094Z,10.30
2019-02-21T00:13:16.765Z,10.43
2019-02-21T00:15:27.583Z,10.23
2019-02-21T00:17:38.388Z,10.10
2019-02-21T00:19:49.213Z,10.17
2019-02-21T00:22:00.009Z,10.47
2019-02-21T00:24:10.849Z,10.93
2019-02-21T00:26:21.664Z,11.00
2019-02-21T00:28:32.471Z,10.63
2019-02-21T00:30:43.300Z,11.07
2019-02-21T00:32:54.081Z,10.40
2019-02-21T00:35:05.023Z,10.27
2019-02-21T00:37:15.801Z,10.50
2019-02-21T00:39:26.603Z,10.53
2019-02-21T00:41:37.421Z,11.10
2019-02-21T00:43:48.229Z,10.47
2019-02-21T00:45:59.058Z,11.10
2019-02-21T00:48:09.970Z,11.30
2019-02-21T00:50:20.788Z,9.67
2019-02-21T00:52:31.621Z,10.30
2019-02-21T00:54:42.393Z,9.90
2019-02-21T00:56:53.207Z,10.53
2019-02-21T00:59:04.008Z,11.47
2019-02-21T01:01:14.836Z,10.57
2019-02-21T01:03:25.650Z,10.70
2019-02-21T01:05:36.449Z,12.23
2019-02-21T01:07:47.418Z,11.83
2019-02-21T01:09:58.288Z,12.23
2019-02-21T01:12:09.109Z,10.90
2019-02-21T01:14:19.931Z,12.67
2019-02-21T01:16:30.786Z,12.77
2019-02-21T01:18:41.555Z,12.13
2019-02-21T01:20:52.370Z,11.90
2019-02-21T01:23:03.212Z,12.10
2019-02-21T01:25:55.636Z,11.53
2019-02-21T01:28:06.453Z,11.93
2019-02-21T01:30:17.263Z,11.77
2019-02-21T01:32:28.068Z,11.53
2019-02-21T01:34:38.892Z,12.33
2019-02-21T01:36:49.710Z,13.17
2019-02-21T01:39:00.511Z,10.67
2019-02-21T01:41:11.302Z,12.87
2019-02-21T01:43:22.112Z,11.70
2019-02-21T01:45:32.907Z,13.83
2019-02-21T01:47:43.717Z,11.70
2019-02-21T01:49:54.523Z,11.63
2019-02-21T01:52:05.335Z,11.43
2019-02-21T01:54:16.122Z,11.07
2019-02-21T01:56:26.934Z,12.03
2019-02-21T01:58:37.771Z,12.47
2019-02-21T02:00:48.564Z,12.47
2019-02-21T02:02:59.381Z,12.90
2019-02-21T02:05:10.277Z,13.37
2019-02-21T02:07:21.070Z,11.73
2019-02-21T02:09:31.984Z,13.07
2019-02-21T02:11:42.795Z,13.17
2019-02-21T02:13:53.634Z,12.73
2019-02-21T02:16:04.450Z,13.13
2019-02-21T02:18:15.282Z,13.37
2019-02-21T02:20:26.087Z,12.23
2019-02-21T02:22:36.892Z,12.17
2019-02-21T02:24:47.726Z,12.40
2019-02-21T02:26:58.511Z,13.33
2019-02-21T02:29:09.322Z,12.73
2019-02-21T02:31:23.397Z,12.90
2019-02-21T02:33:32.868Z,13.10
2019-02-21T02:35:43.649Z,13.10
2019-02-21T02:37:54.505Z,13.33
2019-02-21T02:40:46.960Z,13.27
2019-02-21T02:42:57.788Z,14.23
2019-02-21T02:45:08.576Z,14.47
2019-02-21T02:47:19.357Z,13.03
2019-02-21T02:49:30.195Z,13.37
2019-02-21T02:51:40.981Z,13.73
2019-02-21T02:53:51.828Z,14.13
2019-02-21T02:56:02.844Z,14.20
2019-02-21T02:58:15.378Z,14.43
2019-02-21T03:00:26.184Z,14.17
2019-02-21T03:02:36.979Z,14.20
2019-02-21T03:04:47.825Z,14.73
2019-02-21T03:06:58.650Z,13.97
2019-02-21T03:11:41.821Z,14.37
2019-02-21T03:13:52.613Z,13.80
2019-02-21T03:16:03.568Z,14.13
2019-02-21T03:18:14.343Z,13.87
2019-02-21T03:20:25.215Z,13.37
2019-02-21T03:22:36.002Z,13.80
2019-02-21T03:24:46.812Z,13.13
2019-02-21T03:26:57.623Z,13.93
2019-02-21T03:29:08.410Z,14.13
2019-02-21T03:31:19.232Z,13.17
2019-02-21T03:33:30.036Z,14.30
2019-02-21T03:35:40.858Z,13.93
2019-02-21T03:37:51.689Z,13.13
2019-02-21T03:40:44.128Z,13.47
2019-02-21T03:43:36.564Z,13.50
2019-02-21T03:45:47.391Z,13.20
2019-02-21T03:47:58.178Z,13.57
2019-02-21T03:50:50.661Z,12.83
2019-02-21T03:53:01.483Z,13.47
2019-02-21T03:55:12.296Z,13.07
2019-02-21T03:57:23.116Z,14.07
2019-02-21T03:59:33.923Z,14.33
2019-02-21T04:01:44.741Z,12.90
2019-02-21T04:03:55.640Z,13.30
2019-02-21T04:06:06.529Z,14.23
2019-02-21T04:08:17.451Z,13.63
2019-02-21T04:10:28.263Z,13.33
2019-02-21T04:12:39.085Z,13.57
2019-02-21T04:14:49.874Z,13.70
2019-02-21T04:17:00.692Z,13.20
2019-02-21T04:19:11.486Z,13.17
2019-02-21T04:21:22.305Z,11.70
2019-02-21T04:23:33.125Z,13.57
2019-02-21T04:25:43.931Z,13.00
2019-02-21T04:27:54.751Z,13.67
2019-02-21T04:30:47.187Z,13.07
2019-02-21T04:32:58.105Z,13.00
2019-02-21T04:35:08.913Z,13.67
2019-02-21T04:37:19.700Z,12.57
2019-02-21T04:39:30.525Z,14.00
2019-02-21T04:41:41.324Z,13.30
2019-02-21T04:43:52.130Z,12.47
2019-02-21T04:46:02.915Z,13.60
2019-02-21T04:48:13.748Z,13.70
2019-02-21T04:50:24.558Z,12.83
2019-02-21T04:52:35.345Z,12.33
2019-02-21T04:54:46.176Z,11.80
2019-02-21T04:56:56.970Z,13.37
2019-02-21T04:59:07.802Z,14.40
2019-02-21T05:01:18.596Z,14.03
2019-02-21T05:03:29.418Z,14.37
2019-02-21T05:05:40.222Z,11.33
2019-02-21T05:07:51.015Z,13.97
2019-02-21T05:10:43.490Z,14.97
2019-02-21T05:12:54.281Z,15.83
2019-02-21T05:15:05.299Z,14.43
2019-02-21T05:17:16.116Z,13.53
2019-02-21T05:19:26.917Z,12.50
2019-02-21T05:21:37.753Z,12.43
2019-02-21T05:23:48.547Z,14.63
2019-02-21T05:25:59.364Z,13.17
2019-02-21T05:28:51.848Z,14.43
2019-02-21T05:33:44.741Z,14.00
2019-02-21T05:38:38.077Z,15.70
2019-02-21T05:41:08.790Z,14.53
2019-02-21T05:48:30.498Z,15.33
2019-02-21T05:53:23.158Z,15.07
2019-02-21T05:58:12.951Z,16.00
2019-02-21T06:00:43.626Z,14.83
2019-02-21T06:05:46.707Z,15.03
2019-02-21T06:08:17.448Z,14.43
2019-02-21T06:13:20.483Z,14.57
2019-02-21T06:15:51.183Z,16.03
2019-02-21T06:20:40.888Z,15.53
2019-02-21T06:27:52.484Z,16.00
2019-02-21T06:30:44.901Z,16.10
2019-02-21T06:33:04.425Z,16.10
2019-02-21T06:35:50.059Z,13.77
2019-02-21T06:38:00.873Z,15.13
2019-02-21T06:40:11.684Z,14.33
2019-02-21T06:42:22.495Z,14.10
2019-02-21T06:44:33.296Z,15.60
2019-02-21T06:46:44.082Z,14.67
2019-02-21T06:48:54.910Z,15.63
2019-02-21T06:51:05.713Z,13.90
2019-02-21T06:53:16.513Z,16.97
2019-02-21T06:55:27.305Z,17.57
2019-02-21T06:57:38.129Z,17.70
2019-02-21T06:59:48.973Z,18.10
2019-02-21T07:01:59.763Z,18.17
2019-02-21T07:04:10.575Z,17.10
2019-02-21T07:06:31.483Z,17.83
2019-02-21T07:08:34.121Z,18.17
2019-02-21T07:10:44.955Z,18.37
2019-02-21T07:12:55.860Z,17.60
2019-02-21T07:15:48.294Z,18.30
2019-02-21T07:17:59.163Z,17.57
2019-02-21T07:20:09.996Z,15.80
2019-02-21T07:22:22.286Z,17.23
2019-02-21T07:26:52.406Z,15.57
2019-02-21T07:29:03.237Z,15.70
2019-02-21T07:31:14.041Z,16.30
2019-02-21T07:33:28.725Z,16.37
2019-02-21T07:35:37.565Z,16.83
2019-02-21T07:37:48.374Z,18.17
2019-02-21T07:39:59.226Z,16.83
2019-02-21T07:42:10.065Z,16.97
2019-02-21T07:44:20.868Z,16.80
2019-02-21T07:46:32.456Z,15.97
2019-02-21T07:48:44.413Z,17.47
2019-02-21T07:50:55.237Z,15.27
2019-02-21T07:53:06.035Z,14.87
2019-02-21T07:55:16.896Z,15.83
2019-02-21T07:57:27.676Z,15.77
2019-02-21T07:59:38.545Z,14.73
2019-02-21T08:01:49.285Z,15.67
2019-02-21T08:04:00.104Z,15.83
2019-02-21T08:06:10.960Z,17.23
2019-02-21T08:08:21.752Z,14.77
2019-02-21T08:10:33.898Z,15.53
2019-02-21T08:12:45.319Z,15.43
2019-02-21T08:14:56.418Z,14.87
2019-02-21T08:17:08.860Z,16.13
2019-02-21T08:19:19.648Z,16.13
2019-02-21T08:21:30.497Z,15.47
2019-02-21T08:23:49.990Z,15.10
2019-02-21T08:25:54.043Z,13.67
2019-02-21T08:28:04.875Z,14.97
2019-02-21T08:30:15.800Z,15.60
2019-02-21T08:37:04.108Z,16.20
2019-02-21T08:39:14.889Z,15.83
2019-02-21T08:41:25.981Z,14.10
2019-02-21T08:43:37.371Z,15.23
2019-02-21T08:45:49.528Z,15.27
2019-02-21T08:48:00.373Z,15.43
2019-02-21T08:50:11.285Z,14.90
2019-02-21T08:52:22.121Z,14.57
2019-02-21T08:54:32.908Z,15.37
2019-02-21T08:56:43.745Z,14.53
2019-02-21T08:58:54.567Z,14.97
2019-02-21T09:01:05.373Z,14.63
2019-02-21T09:03:18.113Z,15.30
2019-02-21T09:05:28.998Z,15.57
2019-02-21T09:08:32.679Z,15.60
2019-02-21T09:10:34.182Z,15.60
2019-02-21T09:12:48.239Z,14.70
2019-02-21T09:14:57.697Z,14.90
2019-02-21T09:17:08.537Z,14.93
2019-02-21T09:19:19.330Z,14.20
2019-02-21T09:21:30.125Z,14.37
2019-02-21T09:23:40.950Z,15.00
2019-02-21T09:25:51.778Z,15.97
2019-02-21T09:28:02.691Z,14.10
2019-02-21T09:30:55.143Z,14.90
2019-02-21T09:33:16.641Z,15.13
2019-02-21T09:35:18.745Z,15.33
2019-02-21T09:37:29.592Z,14.93
2019-02-21T09:39:40.351Z,14.83
2019-02-21T09:41:51.244Z,15.27
2019-02-21T09:44:02.152Z,14.53
2019-02-21T09:46:13.049Z,14.77
2019-02-21T09:48:23.823Z,14.67
2019-02-21T09:50:34.638Z,14.63
2019-02-21T09:52:45.434Z,13.87
2019-02-21T09:54:56.248Z,14.90
2019-02-21T09:57:13.339Z,13.53
2019-02-21T09:59:19.763Z,13.10
2019-02-21T10:01:30.588Z,13.97
2019-02-21T10:03:44.005Z,12.53
2019-02-21T10:05:54.156Z,15.30
2019-02-21T10:08:04.969Z,14.37
2019-02-21T10:10:35.677Z,15.73
2019-02-21T10:12:46.535Z,15.73
2019-02-21T10:14:57.344Z,14.47
2019-02-21T10:17:08.169Z,14.97
2019-02-21T10:19:18.969Z,15.27
2019-02-21T10:21:29.906Z,16.10
2019-02-21T10:23:42.201Z,15.67
2019-02-21T10:25:53.477Z,16.27
2019-02-21T10:28:04.323Z,15.40
2019-02-21T10:30:56.784Z,15.27
2019-02-21T10:33:07.581Z,14.60
2019-02-21T10:35:18.579Z,15.03
2019-02-21T10:37:29.380Z,14.80
2019-02-21T10:39:40.177Z,14.87
2019-02-21T10:41:51.015Z,14.80
2019-02-21T10:44:01.818Z,14.70
2019-02-21T10:46:12.633Z,13.40
2019-02-21T10:48:23.422Z,13.70
2019-02-21T10:50:34.307Z,14.80
2019-02-21T10:52:45.104Z,14.77
2019-02-21T10:54:55.892Z,13.63
2019-02-21T10:57:06.727Z,12.63
2019-02-21T10:59:24.219Z,13.67
2019-02-21T11:01:35.036Z,12.37
2019-02-21T11:03:45.814Z,14.70
2019-02-21T11:05:56.763Z,13.93
2019-02-21T11:08:07.590Z,14.37
2019-02-21T11:10:38.243Z,15.23
2019-02-21T11:12:49.053Z,13.43
2019-02-21T11:14:59.855Z,14.40
2019-02-21T11:17:10.684Z,14.50
2019-02-21T11:19:21.546Z,13.50
2019-02-21T11:21:32.401Z,14.17
2019-02-21T11:23:43.217Z,12.93
2019-02-21T11:25:54.038Z,13.80
2019-02-21T11:28:04.875Z,13.07
2019-02-21T11:30:57.319Z,14.23
2019-02-21T11:33:08.266Z,12.30
2019-02-21T11:35:19.056Z,14.17
2019-02-21T11:37:29.862Z,14.97
2019-02-21T11:39:40.685Z,13.23
2019-02-21T11:41:51.533Z,13.90
2019-02-21T11:44:02.411Z,13.57
2019-02-21T11:46:13.214Z,14.20
2019-02-21T11:48:24.054Z,13.60
2019-02-21T11:50:34.846Z,13.80
2019-02-21T11:53:27.323Z,14.03
2019-02-21T11:55:38.207Z,13.93
2019-02-21T11:57:49.178Z,13.20
2019-02-21T11:59:59.993Z,14.77
2019-02-21T12:02:10.790Z,14.60
2019-02-21T12:04:24.307Z,14.00
2019-02-21T12:06:34.342Z,14.23
2019-02-21T12:08:45.141Z,13.87
2019-02-21T12:10:55.934Z,13.30
2019-02-21T12:13:06.736Z,12.23
2019-02-21T12:15:17.561Z,13.60
2019-02-21T12:17:28.391Z,13.43
2019-02-21T12:19:39.220Z,13.20
2019-02-21T12:21:58.670Z,14.00
2019-02-21T12:24:02.848Z,14.13
2019-02-21T12:26:13.681Z,13.90
2019-02-21T12:28:24.484Z,14.97
2019-02-21T12:30:35.322Z,13.80
2019-02-21T12:32:46.218Z,13.83
2019-02-21T12:34:57.112Z,14.53
2019-02-21T12:37:07.921Z,14.27
2019-02-21T12:39:18.755Z,15.03
2019-02-21T12:41:29.539Z,14.73
2019-02-21T12:43:40.336Z,14.47
2019-02-21T12:46:32.825Z,14.73
2019-02-21T12:48:43.658Z,15.83
2019-02-21T12:50:54.610Z,15.23
2019-02-21T12:53:05.413Z,16.20
2019-02-21T12:55:27.286Z,15.27
2019-02-21T12:57:29.050Z,15.50
2019-02-21T12:59:39.853Z,13.93
2019-02-21T13:01:50.681Z,13.80
2019-02-21T13:04:01.495Z,14.90
2019-02-21T13:06:12.525Z,13.17
2019-02-21T13:08:23.335Z,15.53
2019-02-21T13:10:34.976Z,14.67
2019-02-21T13:12:46.865Z,15.33
2019-02-21T13:14:57.679Z,16.20
2019-02-21T13:17:08.506Z,16.60
2019-02-21T13:19:19.331Z,17.13
2019-02-21T13:21:30.153Z,15.77
2019-02-21T13:23:42.921Z,15.93
2019-02-21T13:25:53.678Z,16.37
2019-02-21T13:28:04.483Z,15.80
2019-02-21T13:30:56.939Z,15.13
2019-02-21T13:33:07.768Z,16.43
2019-02-21T13:35:18.574Z,16.63
2019-02-21T13:37:29.446Z,16.70
2019-02-21T13:39:40.195Z,16.63
2019-02-21T13:41:51.018Z,15.77
2019-02-21T13:44:01.824Z,15.17
2019-02-21T13:46:12.632Z,15.60
2019-02-21T13:48:23.462Z,15.60
2019-02-21T13:50:34.359Z,15.50
2019-02-21T13:52:45.277Z,15.30
2019-02-21T13:54:56.180Z,14.83
2019-02-21T13:57:06.982Z,14.47
2019-02-21T13:59:17.838Z,13.23
2019-02-21T14:01:28.650Z,14.50
2019-02-21T14:03:39.505Z,13.53
2019-02-21T14:05:50.314Z,13.77
2019-02-21T14:08:01.275Z,12.57
2019-02-21T14:10:53.756Z,13.27
2019-02-21T14:13:04.570Z,12.67
2019-02-21T14:15:57.026Z,14.07
2019-02-21T14:18:07.845Z,14.13
2019-02-21T14:20:18.700Z,14.00
2019-02-21T14:22:29.530Z,15.73
2019-02-21T14:24:40.397Z,13.97
2019-02-21T14:26:51.175Z,13.57
2019-02-21T14:29:01.998Z,14.47
2019-02-21T14:31:12.788Z,15.33
2019-02-21T14:33:23.626Z,14.23
2019-02-21T14:35:34.435Z,14.73
2019-02-21T14:37:45.250Z,14.13
2019-02-21T14:39:56.100Z,15.23
2019-02-21T14:42:06.899Z,15.17
2019-02-21T14:44:17.708Z,13.40
2019-02-21T14:46:28.546Z,15.00
2019-02-21T14:48:39.344Z,14.27
2019-02-21T14:50:50.181Z,15.63
2019-02-21T14:53:00.992Z,14.27
2019-02-21T14:55:53.463Z,15.13
2019-02-21T14:58:04.261Z,15.53
2019-02-21T15:00:56.774Z,14.07
2019-02-21T15:03:07.665Z,15.57
2019-02-21T15:06:00.198Z,15.53
2019-02-21T15:08:10.981Z,14.50
2019-02-21T15:10:21.916Z,14.87
2019-02-21T15:12:35.510Z,16.03
2019-02-21T15:14:45.437Z,14.83
2019-02-21T15:16:56.315Z,15.70
2019-02-21T15:19:07.106Z,16.80
2019-02-21T15:21:18.075Z,15.30
2019-02-21T15:23:28.895Z,15.50
2019-02-21T15:25:39.739Z,15.83
2019-02-21T15:27:50.544Z,16.03
2019-02-21T15:30:01.342Z,14.60
2019-02-21T15:32:14.299Z,15.87
2019-02-21T15:34:24.910Z,14.77
2019-02-21T15:36:38.535Z,12.43
2019-02-21T15:38:48.437Z,15.50
2019-02-21T15:40:59.271Z,13.67
2019-02-21T15:43:10.065Z,12.10
2019-02-21T15:46:02.551Z,14.03
2019-02-21T15:48:13.369Z,14.33
2019-02-21T15:50:24.216Z,15.00
2019-02-21T15:52:35.040Z,14.77
2019-02-21T15:54:45.858Z,14.73
2019-02-21T15:56:56.671Z,13.83
2019-02-21T15:59:07.537Z,15.07
2019-02-21T16:01:18.334Z,15.17
2019-02-21T16:03:29.185Z,16.40
2019-02-21T16:05:40.020Z,13.07
2019-02-21T16:07:50.827Z,14.83
2019-02-21T16:10:43.291Z,15.37
2019-02-21T16:12:54.373Z,13.77
2019-02-21T16:15:48.516Z,14.17
2019-02-21T16:17:59.324Z,14.93
2019-02-21T16:20:52.988Z,12.73
2019-02-21T16:23:04.528Z,13.03
2019-02-21T16:25:56.983Z,14.50
2019-02-21T16:28:07.840Z,13.87
2019-02-21T16:30:18.609Z,14.33
2019-02-21T16:32:29.424Z,17.40
2019-02-21T16:34:40.260Z,14.83
2019-02-21T16:37:01.816Z,16.37
2019-02-21T16:39:04.481Z,19.23
2019-02-21T16:41:16.814Z,15.93
2019-02-21T16:43:27.651Z,17.57
2019-02-21T16:45:43.657Z,15.27
2019-02-21T16:47:51.206Z,18.40
2019-02-21T16:50:43.706Z,16.40
2019-02-21T16:52:54.513Z,19.20
2019-02-21T16:55:46.964Z,17.40
2019-02-21T16:57:57.786Z,15.70
2019-02-21T17:00:54.699Z,18.73
2019-02-21T17:03:44.617Z,19.77
2019-02-21T17:05:55.583Z,18.17
2019-02-21T17:08:06.389Z,16.37
2019-02-21T17:10:17.209Z,15.17
2019-02-21T17:12:28.038Z,14.77
2019-02-21T17:14:38.855Z,14.90
2019-02-21T17:16:49.687Z,14.70
2019-02-21T17:19:00.500Z,15.07
2019-02-21T17:21:11.386Z,15.40
2019-02-21T17:23:23.166Z,14.53
2019-02-21T17:25:35.045Z,13.97
2019-02-21T17:28:27.516Z,16.33
2019-02-21T17:30:38.386Z,16.00
2019-02-21T17:32:49.219Z,16.27
2019-02-21T17:35:00.016Z,16.77
2019-02-21T17:37:10.873Z,15.23
2019-02-21T17:39:21.681Z,17.47
2019-02-21T17:41:32.543Z,15.80
2019-02-21T17:43:43.333Z,17.17
2019-02-21T17:45:54.148Z,16.87
2019-02-21T17:48:04.975Z,17.67
2019-02-21T17:50:57.493Z,17.50
2019-02-21T17:53:08.337Z,16.13
2019-02-21T17:55:19.160Z,15.20
2019-02-21T17:57:30.089Z,15.37
2019-02-21T17:59:40.898Z,14.93
2019-02-21T18:01:51.724Z,14.47
2019-02-21T18:04:02.534Z,14.33
2019-02-21T18:06:13.368Z,14.10
2019-02-21T18:08:24.169Z,14.27
2019-02-21T18:10:34.981Z,15.57
2019-02-21T18:12:45.812Z,14.87
2019-02-21T18:14:56.676Z,16.87
2019-02-21T18:17:07.589Z,16.43
2019-02-21T18:19:18.497Z,17.37
2019-02-21T18:21:29.330Z,17.50
2019-02-21T18:23:40.162Z,17.73
2019-02-21T18:26:12.132Z,15.17
2019-02-21T18:28:22.976Z,17.77
2019-02-21T18:30:33.768Z,18.37
2019-02-21T18:32:44.587Z,17.37
2019-02-21T18:34:55.468Z,18.30
2019-02-21T18:37:06.291Z,17.90
2019-02-21T18:41:39.356Z,16.97
2019-02-21T18:43:50.201Z,16.60
2019-02-21T18:46:01.033Z,17.60
2019-02-21T18:48:11.978Z,18.67
2019-02-21T18:50:22.892Z,18.30
2019-02-21T18:52:33.728Z,17.80
2019-02-21T18:54:44.642Z,17.73
2019-02-21T18:56:55.526Z,18.90
2019-02-21T18:59:06.511Z,19.30
2019-02-21T19:01:17.344Z,19.90
2019-02-21T19:03:28.151Z,19.10
2019-02-21T19:05:38.977Z,18.93
2019-02-21T19:07:58.268Z,17.80
2019-02-21T19:10:44.206Z,18.67
2019-02-21T19:12:55.133Z,17.80
2019-02-21T19:15:47.636Z,16.50
2019-02-21T19:17:58.432Z,18.80
2019-02-21T19:20:50.969Z,18.97
2019-02-21T19:23:01.899Z,19.67
2019-02-21T19:25:12.958Z,19.60
2019-02-21T19:27:23.861Z,20.67
2019-02-21T19:29:34.742Z,18.30
2019-02-21T19:31:45.679Z,18.10
2019-02-21T19:33:56.601Z,18.70
2019-02-21T19:36:07.639Z,19.27
2019-02-21T19:38:18.441Z,19.37
2019-02-21T19:40:29.281Z,19.50
2019-02-21T19:42:40.114Z,20.30
2019-02-21T19:44:50.954Z,19.63
2019-02-21T19:47:01.809Z,16.30
2019-02-21T19:49:12.719Z,17.87
2019-02-21T19:51:23.572Z,17.60
2019-02-21T19:53:34.399Z,17.27
2019-02-21T19:55:45.270Z,17.97
2019-02-21T19:57:56.086Z,18.33
2019-02-21T20:00:48.584Z,16.67
2019-02-21T20:03:41.054Z,16.60
2019-02-21T20:05:51.997Z,17.10
2019-02-21T20:08:08.538Z,17.57
2019-02-21T20:10:15.688Z,16.87
2019-02-21T20:12:26.559Z,15.30
2019-02-21T20:14:37.368Z,16.83
2019-02-21T20:16:48.229Z,18.33
2019-02-21T20:18:59.144Z,18.23
2019-02-21T20:21:09.976Z,18.40
2019-02-21T20:23:20.836Z,16.87
2019-02-21T20:25:31.653Z,16.57
2019-02-21T20:27:42.585Z,18.77
2019-02-21T20:29:53.511Z,19.20
2019-02-21T20:32:04.443Z,20.17
2019-02-21T20:34:15.294Z,19.10
2019-02-21T20:36:26.139Z,19.07
2019-02-21T20:38:36.981Z,19.37
2019-02-21T20:40:47.774Z,19.17
2019-02-21T20:42:58.635Z,19.80
2019-02-21T20:45:29.311Z,19.70
2019-02-21T20:47:40.177Z,17.37
2019-02-21T20:49:50.985Z,20.23
2019-02-21T20:52:01.789Z,21.10
2019-02-21T20:54:13.021Z,19.70
2019-02-21T20:56:25.383Z,19.17
2019-02-21T20:58:36.213Z,20.57
2019-02-21T21:00:47.202Z,20.10
2019-02-21T21:02:58.018Z,21.27
2019-02-21T21:05:08.828Z,20.20
2019-02-21T21:07:25.125Z,19.60
2019-02-21T21:09:32.486Z,21.47
2019-02-21T21:11:43.397Z,23.20
2019-02-21T21:13:54.223Z,22.97
2019-02-21T21:16:05.007Z,26.07
2019-02-21T21:18:16.042Z,22.97
2019-02-21T21:20:26.911Z,22.97
2019-02-21T21:22:37.722Z,24.27
2019-02-21T21:24:48.542Z,23.63
2019-02-21T21:26:59.367Z,23.37
2019-02-21T21:29:10.282Z,25.83
2019-02-21T21:31:21.118Z,26.17
2019-02-21T21:33:31.938Z,28.10
2019-02-21T21:35:42.955Z,29.00
2019-02-21T21:37:53.756Z,25.77
2019-02-21T21:40:46.252Z,24.27
2019-02-21T21:42:57.149Z,25.77
2019-02-21T21:45:49.657Z,24.57
2019-02-21T21:48:00.571Z,22.67
2019-02-21T21:50:53.084Z,24.40
2019-02-21T21:53:03.896Z,23.27
2019-02-21T21:55:14.782Z,23.90
2019-02-21T21:57:25.598Z,23.60
2019-02-21T21:59:56.282Z,24.70
2019-02-21T22:02:07.206Z,23.23
2019-02-21T22:04:18.022Z,23.23
2019-02-21T22:06:28.846Z,21.93
2019-02-21T22:08:39.668Z,19.67
2019-02-21T22:10:50.465Z,22.43
2019-02-21T22:13:01.305Z,23.17
2019-02-21T22:15:31.975Z,24.17
2019-02-21T22:17:42.804Z,21.33
2019-02-21T22:19:53.615Z,21.13
2019-02-21T22:22:04.546Z,20.77
2019-02-21T22:24:15.359Z,19.90
2019-02-21T22:26:26.170Z,19.43
2019-02-21T22:28:37.003Z,17.60
2019-02-21T22:30:47.812Z,15.97
2019-02-21T22:32:58.647Z,18.77
2019-02-21T22:35:09.544Z,16.33
2019-02-21T22:37:20.378Z,16.40
2019-02-21T22:39:31.171Z,15.87
2019-02-21T22:41:41.967Z,16.63
2019-02-21T22:43:52.788Z,18.40
2019-02-21T22:46:03.608Z,22.13
2019-02-21T22:48:14.424Z,21.83
2019-02-21T22:50:26.938Z,20.47
2019-02-21T22:52:37.970Z,21.70
2019-02-21T22:54:48.832Z,21.07
2019-02-21T22:56:59.631Z,20.37
2019-02-21T22:59:10.454Z,21.17
2019-02-21T23:02:02.911Z,21.50
2019-02-21T23:04:55.380Z,20.30
2019-02-21T23:07:47.908Z,22.00
2019-02-21T23:09:58.763Z,22.63
2019-02-21T23:12:09.694Z,22.30
2019-02-21T23:14:20.614Z,20.63
2019-02-21T23:16:31.536Z,20.97
2019-02-21T23:18:42.357Z,21.60
2019-02-21T23:20:53.160Z,17.13
2019-02-21T23:23:03.985Z,19.53
2019-02-21T23:25:14.834Z,20.10
2019-02-21T23:27:25.636Z,20.57
2019-02-21T23:29:36.542Z,20.53
2019-02-21T23:31:47.365Z,20.87
2019-02-21T23:36:30.586Z,20.43
2019-02-21T23:38:41.392Z,20.57
2019-02-21T23:40:52.263Z,21.80
2019-02-21T23:43:03.181Z,19.30
2019-02-21T23:45:13.990Z,18.33
2019-02-21T23:47:24.794Z,20.73
2019-02-21T23:49:35.601Z,21.07
2019-02-21T23:51:46.429Z,19.13
2019-02-21T23:54:03.006Z,19.77
2019-02-21T23:56:10.046Z,19.13
2019-02-21T23:58:20.956Z,19.57
